createdAt,value
2023-01-23T00:01:18.841Z,12.38
2023-01-23T00:06:16.524Z,13.38
2023-01-23T00:11:17.686Z,12.02
2023-01-23T00:16:18.125Z,12.40
2023-01-23T00:21:17.415Z,11.68
2023-01-23T00:26:17.870Z,12.55
2023-01-23T00:31:25.436Z,11.82
2023-01-23T00:36:21.996Z,11.55
2023-01-23T00:41:18.596Z,11.23
2023-01-23T00:46:15.042Z,11.35
2023-01-23T00:51:11.653Z,10.80
2023-01-23T00:56:09.018Z,10.70
2023-01-23T01:01:05.448Z,12.05
2023-01-23T01:06:02.333Z,11.55
2023-01-23T01:10:59.016Z,11.65
2023-01-23T01:15:55.494Z,10.85
2023-01-23T01:20:51.930Z,11.18
2023-01-23T01:25:48.327Z,12.68
2023-01-23T01:30:44.753Z,12.88
2023-01-23T01:35:41.440Z,14.15
2023-01-23T01:40:38.007Z,14.75
2023-01-23T01:45:56.016Z,14.63
2023-01-23T01:50:53.231Z,14.38
2023-01-23T01:55:49.959Z,13.27
2023-01-23T02:00:46.427Z,14.63
2023-01-23T02:05:47.313Z,14.75
2023-01-23T02:10:44.099Z,16.50
2023-01-23T02:15:41.334Z,16.45
2023-01-23T02:20:38.013Z,17.20
2023-01-23T02:25:44.164Z,16.63
2023-01-23T02:30:42.588Z,18.58
2023-01-23T02:35:39.352Z,18.73
2023-01-23T02:40:39.847Z,18.25
2023-01-23T02:45:36.461Z,17.63
2023-01-23T02:50:32.888Z,17.67
2023-01-23T02:55:33.496Z,18.67
2023-01-23T03:00:30.098Z,20.67
2023-01-23T03:05:26.844Z,20.25
2023-01-23T03:10:23.210Z,20.08
2023-01-23T03:15:19.622Z,22.83
2023-01-23T03:20:20.119Z,22.90
2023-01-23T03:25:17.013Z,22.58
2023-01-23T03:30:16.004Z,24.10
2023-01-23T03:35:16.670Z,21.17
2023-01-23T03:40:37.108Z,22.63
2023-01-23T03:45:33.873Z,22.60
2023-01-23T03:50:30.427Z,23.25
2023-01-23T03:55:26.799Z,22.83
2023-01-23T04:00:23.387Z,22.15
2023-01-23T04:05:19.843Z,20.33
2023-01-23T04:10:16.390Z,21.35
2023-01-23T04:15:12.823Z,20.65
2023-01-23T04:20:10.006Z,20.85
2023-01-23T04:25:07.088Z,19.25
2023-01-23T04:30:04.023Z,18.98
2023-01-23T04:35:00.542Z,19.38
2023-01-23T04:39:57.054Z,18.88
2023-01-23T04:44:53.425Z,17.85
2023-01-23T04:49:50.180Z,18.60
2023-01-23T04:54:46.542Z,18.45
2023-01-23T04:59:42.963Z,19.98
2023-01-23T05:04:39.335Z,19.52
2023-01-23T05:09:35.790Z,20.55
2023-01-23T05:14:32.266Z,20.50
2023-01-23T05:19:28.724Z,19.67
2023-01-23T05:24:25.299Z,21.15
2023-01-23T05:29:21.864Z,20.98
2023-01-23T05:34:18.259Z,21.77
2023-01-23T05:39:14.701Z,21.58
2023-01-23T05:44:11.235Z,23.35
2023-01-23T05:49:07.691Z,23.80
2023-01-23T05:54:04.332Z,24.40
2023-01-23T05:59:00.764Z,23.63
2023-01-23T06:03:57.213Z,24.02
2023-01-23T06:08:53.618Z,24.70
2023-01-23T06:13:50.039Z,25.48
2023-01-23T06:18:46.425Z,25.15
2023-01-23T06:23:42.857Z,23.77
2023-01-23T06:28:39.668Z,24.63
2023-01-23T06:33:38.902Z,25.00
2023-01-23T06:38:35.583Z,24.95
2023-01-23T06:43:32.025Z,26.02
2023-01-23T06:48:28.443Z,25.80
2023-01-23T06:53:24.848Z,27.02
2023-01-23T06:58:21.364Z,26.45
2023-01-23T07:03:17.844Z,26.88
2023-01-23T07:08:14.443Z,27.42
2023-01-23T07:13:11.582Z,26.65
2023-01-23T07:18:09.396Z,26.20
2023-01-23T07:23:05.873Z,27.05
2023-01-23T07:28:02.621Z,27.23
2023-01-23T07:32:59.368Z,27.13
2023-01-23T07:37:56.262Z,28.00
2023-01-23T07:42:52.705Z,25.83
2023-01-23T07:47:49.110Z,26.42
2023-01-23T07:52:45.588Z,27.15
2023-01-23T07:57:42.491Z,28.05
2023-01-23T08:02:39.110Z,25.33
2023-01-23T08:07:35.587Z,24.77
2023-01-23T08:12:32.058Z,25.65
2023-01-23T08:17:28.439Z,27.42
2023-01-23T08:22:24.891Z,24.50
2023-01-23T08:27:21.486Z,25.52
2023-01-23T08:32:17.867Z,24.98
2023-01-23T08:37:14.256Z,24.20
2023-01-23T08:42:10.675Z,23.63
2023-01-23T08:47:07.137Z,22.98
2023-01-23T08:52:05.757Z,23.13
2023-01-23T08:57:02.833Z,22.23
2023-01-23T09:01:59.251Z,24.48
2023-01-23T09:06:55.652Z,24.63
2023-01-23T09:11:52.092Z,24.95
2023-01-23T09:16:48.775Z,25.77
2023-01-23T09:21:45.319Z,25.70
2023-01-23T09:26:43.790Z,24.50
2023-01-23T09:31:40.288Z,23.10
2023-01-23T09:36:43.375Z,22.67
2023-01-23T09:41:41.020Z,23.13
2023-01-23T09:46:49.895Z,23.98
2023-01-23T09:52:05.481Z,21.67
2023-01-23T09:57:11.453Z,22.27
2023-01-23T10:02:20.098Z,21.25
2023-01-23T10:07:22.725Z,21.48
2023-01-23T10:12:40.682Z,21.05
2023-01-23T10:17:51.600Z,20.48
2023-01-23T10:23:23.460Z,21.23
2023-01-23T10:28:40.163Z,20.38
2023-01-23T10:33:45.508Z,20.02
2023-01-23T10:38:49.532Z,20.67
2023-01-23T10:43:51.523Z,20.55
2023-01-23T10:48:50.705Z,20.92
2023-01-23T10:54:06.205Z,20.13
2023-01-23T10:59:05.324Z,20.85
2023-01-23T11:04:18.244Z,20.02
2023-01-23T11:09:23.672Z,20.30
2023-01-23T11:14:22.606Z,20.48
2023-01-23T11:19:22.381Z,19.40
2023-01-23T11:24:27.710Z,20.13
2023-01-23T11:29:42.437Z,19.40
2023-01-23T11:34:45.589Z,20.00
2023-01-23T11:39:53.618Z,18.05
2023-01-23T11:44:51.106Z,19.23
2023-01-23T11:50:14.188Z,18.88
2023-01-23T11:55:38.839Z,19.38
2023-01-23T12:01:03.396Z,19.00
2023-01-23T12:12:06.704Z,18.67
2023-01-23T12:17:28.105Z,19.02
2023-01-23T12:22:34.564Z,19.20
2023-01-23T12:27:44.979Z,17.45
2023-01-23T12:33:09.191Z,17.10
2023-01-23T12:38:34.526Z,18.27
2023-01-23T12:44:06.635Z,17.02
2023-01-23T12:49:38.787Z,17.42
2023-01-23T12:54:42.571Z,17.90
2023-01-23T13:00:05.221Z,17.45
2023-01-23T13:05:21.551Z,17.07
2023-01-23T13:10:23.877Z,16.85
2023-01-23T13:15:38.780Z,17.73
2023-01-23T13:21:12.149Z,16.95
2023-01-23T13:26:22.814Z,17.30
2023-01-23T13:31:40.279Z,19.77
2023-01-23T13:36:37.736Z,18.65
2023-01-23T13:41:34.248Z,18.73
2023-01-23T14:24:23.080Z,19.85
2023-01-23T14:29:24.247Z,19.80
2023-01-23T14:34:22.974Z,17.92
2023-01-23T14:39:23.083Z,20.52
2023-01-23T14:44:23.519Z,18.52
2023-01-23T14:49:29.654Z,18.08
2023-01-23T14:54:31.803Z,18.27
2023-01-23T14:59:41.422Z,19.38
2023-01-23T15:04:37.897Z,19.27
2023-01-23T15:09:41.401Z,19.00
2023-01-23T15:14:39.705Z,18.48
2023-01-23T15:19:37.781Z,18.88
2023-01-23T15:24:34.351Z,20.42
2023-01-23T15:29:31.670Z,19.73
2023-01-23T15:34:34.172Z,19.42
2023-01-23T15:39:49.246Z,22.50
2023-01-23T15:44:45.732Z,20.88
2023-01-23T15:49:42.264Z,21.73
2023-01-23T15:54:38.985Z,19.73
2023-01-23T15:59:36.721Z,21.17
2023-01-23T16:04:33.623Z,22.63
2023-01-23T16:09:33.578Z,22.90
2023-01-23T16:14:30.091Z,22.88
2023-01-23T16:19:26.655Z,23.00
2023-01-23T16:24:24.092Z,23.38
2023-01-23T16:29:32.275Z,23.13
2023-01-23T16:34:29.019Z,23.42
2023-01-23T16:39:27.314Z,23.95
2023-01-23T16:44:24.056Z,24.27
2023-01-23T16:49:21.050Z,23.80
2023-01-23T16:54:21.272Z,22.67
2023-01-23T16:59:25.985Z,23.73
2023-01-23T17:04:22.477Z,24.10
2023-01-23T17:09:19.172Z,24.10
2023-01-23T17:14:22.529Z,24.67
2023-01-23T17:19:30.760Z,23.27
2023-01-23T17:24:27.626Z,25.58
2023-01-23T17:29:24.600Z,25.58
2023-01-23T17:34:24.573Z,24.10
2023-01-23T17:39:21.441Z,24.90
2023-01-23T17:44:17.925Z,26.73
2023-01-23T17:49:30.683Z,23.67
2023-01-23T17:54:27.390Z,25.23
2023-01-23T17:59:23.965Z,23.70
2023-01-23T18:04:22.475Z,24.50
2023-01-23T18:09:19.122Z,24.30
2023-01-23T18:14:30.161Z,23.90
2023-01-23T18:19:27.534Z,24.95
2023-01-23T18:24:30.446Z,26.38
2023-01-23T18:29:45.727Z,26.40
2023-01-23T18:35:04.292Z,27.27
2023-01-23T18:40:12.810Z,24.48
2023-01-23T18:45:23.555Z,24.05
2023-01-23T18:50:25.208Z,26.15
2023-01-23T18:55:52.696Z,26.05
2023-01-23T19:00:53.856Z,24.88
2023-01-23T19:05:50.582Z,24.15
2023-01-23T19:10:49.282Z,25.40
2023-01-23T19:15:57.737Z,26.95
2023-01-23T19:21:14.430Z,24.15
2023-01-23T19:26:15.003Z,26.38
2023-01-23T19:31:23.281Z,24.77
2023-01-23T19:36:21.628Z,23.98
2023-01-23T19:41:24.060Z,26.17
2023-01-23T19:46:22.337Z,26.58
2023-01-23T19:51:21.564Z,27.42
2023-01-23T19:56:18.182Z,25.45
2023-01-23T20:01:34.171Z,27.50
2023-01-23T20:06:31.021Z,24.30
2023-01-23T20:11:27.447Z,24.88
2023-01-23T20:16:24.965Z,26.25
2023-01-23T20:21:23.782Z,28.33
2023-01-23T20:26:21.265Z,25.90
2023-01-23T20:31:17.907Z,26.33
2023-01-23T20:36:15.812Z,25.77
2023-01-23T20:41:16.013Z,25.17
2023-01-23T20:46:14.062Z,27.13
2023-01-23T20:51:11.588Z,26.92
2023-01-23T20:56:19.815Z,26.80
2023-01-23T21:01:18.323Z,26.08
2023-01-23T21:06:15.350Z,26.65
2023-01-23T21:11:19.956Z,26.65
2023-01-23T21:16:17.542Z,29.40
2023-01-23T21:21:16.824Z,26.65
2023-01-23T21:26:13.278Z,28.23
2023-01-23T21:31:16.041Z,27.75
2023-01-23T21:36:14.029Z,27.08
2023-01-23T21:41:10.413Z,28.30
2023-01-23T21:46:07.753Z,27.17
2023-01-23T21:51:14.087Z,27.05
2023-01-23T21:56:13.065Z,27.65
2023-01-23T22:01:33.554Z,26.75
2023-01-23T22:06:31.412Z,28.80
2023-01-23T22:11:28.257Z,25.23
2023-01-23T22:16:35.971Z,25.00
2023-01-23T22:21:41.312Z,28.38
2023-01-23T22:26:38.062Z,27.95
2023-01-23T22:31:34.692Z,27.67
2023-01-23T22:36:31.149Z,25.38
2023-01-23T22:41:28.504Z,27.70
2023-01-23T22:46:25.091Z,26.63
2023-01-23T22:51:24.851Z,26.15
2023-01-23T22:56:22.563Z,26.80
2023-01-23T23:01:19.661Z,26.52
2023-01-23T23:06:17.114Z,24.98
2023-01-23T23:11:27.980Z,24.50
2023-01-23T23:16:27.114Z,26.75
2023-01-23T23:21:25.516Z,25.85
2023-01-23T23:26:21.950Z,27.20
2023-01-23T23:31:19.097Z,27.67
2023-01-23T23:36:15.644Z,27.00
2023-01-23T23:41:14.894Z,26.15
2023-01-23T23:46:12.914Z,27.83
2023-01-23T23:51:12.855Z,25.00
2023-01-23T23:56:13.904Z,25.27
